Time;durP1;ratioP1;P1;durP2;ratioP2;P2;SDS_P1;SDS_P2;PMS_P1;PMS_P2;Temp;Humidity;BMP_temperature;BMP_pressure;BME280_temperature;BME280_humidity;BME280_pressure;Samples;Min_cycle;Max_cycle;Signal;HPM_P1;HPM_P2
2023/04/24 00:00:02;;;;;;;25.88;18.63;;;10.50;99.90;;;;;;5113662;28;20186;-57
2023/04/24 00:02:28;;;;;;;23.85;18.90;;;10.50;99.90;;;;;;5113930;28;20212;-57
2023/04/24 00:04:54;;;;;;;22.73;19.90;;;10.50;99.90;;;;;;5113968;28;20301;-58
2023/04/24 00:07:20;;;;;;;22.83;20.42;;;10.50;99.90;;;;;;5113736;28;20601;-58
2023/04/24 00:09:45;;;;;;;25.25;21.38;;;10.50;99.90;;;;;;5113778;28;20177;-57
2023/04/24 00:12:11;;;;;;;26.00;21.85;;;10.40;99.90;;;;;;5095485;28;20185;-58
2023/04/24 00:14:37;;;;;;;24.25;21.65;;;10.40;99.90;;;;;;5113695;28;20705;-58
2023/04/24 00:17:03;;;;;;;23.38;20.80;;;10.50;99.90;;;;;;5113888;28;20173;-58
2023/04/24 00:19:29;;;;;;;24.40;20.98;;;10.50;99.90;;;;;;5113746;28;20658;-58
2023/04/24 00:21:55;;;;;;;23.17;20.73;;;10.60;99.90;;;;;;5113610;28;20668;-58
2023/04/24 00:24:21;;;;;;;26.00;21.13;;;10.60;99.90;;;;;;5095463;28;20169;-58
2023/04/24 00:26:47;;;;;;;23.25;20.75;;;10.40;99.90;;;;;;5113533;28;20716;-59
2023/04/24 00:29:13;;;;;;;23.38;19.83;;;10.40;99.90;;;;;;5113393;28;20165;-58
2023/04/24 00:31:39;;;;;;;23.58;18.67;;;10.40;99.90;;;;;;5113852;28;20238;-58
2023/04/24 00:34:05;;;;;;;21.17;18.95;;;10.40;99.90;;;;;;5113570;28;20165;-58
2023/04/24 00:36:32;;;;;;;21.67;19.42;;;10.40;99.90;;;;;;5113614;28;20174;-58
2023/04/24 00:38:58;;;;;;;22.63;18.60;;;10.40;99.90;;;;;;5113950;28;20188;-58
2023/04/24 00:41:25;;;;;;;22.10;19.15;;;10.40;99.90;;;;;;5099280;28;20201;-58
2023/04/24 00:43:52;;;;;;;20.33;18.08;;;10.50;99.90;;;;;;5117517;28;20261;-58
2023/04/24 00:46:18;;;;;;;19.50;17.33;;;10.40;99.90;;;;;;5117528;28;20174;-57
2023/04/24 00:48:44;;;;;;;19.40;17.05;;;10.50;99.90;;;;;;5117410;28;20221;-57
2023/04/24 00:51:10;;;;;;;21.85;18.77;;;10.40;99.90;;;;;;5117528;28;20177;-58
2023/04/24 00:53:36;;;;;;;19.60;17.70;;;10.40;99.90;;;;;;5117455;28;20166;-58
2023/04/24 00:56:02;;;;;;;20.38;17.02;;;10.50;99.90;;;;;;5117275;28;20177;-58
2023/04/24 00:58:28;;;;;;;20.35;18.05;;;10.40;99.90;;;;;;5117138;28;20245;-58
2023/04/24 01:00:55;;;;;;;19.80;17.38;;;10.40;99.90;;;;;;5099184;28;20228;-58
2023/04/24 01:03:28;;;;;;;19.00;17.13;;;10.30;99.90;;;;;;5117342;28;20177;-58
2023/04/24 01:05:55;;;;;;;19.25;17.35;;;10.30;99.90;;;;;;5117284;28;20306;-58
2023/04/24 01:08:26;;;;;;;19.67;17.60;;;10.30;99.90;;;;;;5117061;28;20174;-57
2023/04/24 01:10:52;;;;;;;17.88;16.10;;;10.30;99.90;;;;;;5117096;28;20173;-58
2023/04/24 01:13:19;;;;;;;20.40;16.70;;;10.40;99.90;;;;;;5117130;28;20170;-58
2023/04/24 01:15:45;;;;;;;17.65;15.75;;;10.30;99.90;;;;;;5117139;28;20177;-58
2023/04/24 01:18:11;;;;;;;17.15;15.55;;;10.30;99.90;;;;;;5116980;28;20199;-58
2023/04/24 01:20:40;;;;;;;16.45;14.77;;;10.30;99.90;;;;;;5116810;28;20194;-59
2023/04/24 01:23:09;;;;;;;14.43;12.88;;;10.20;99.90;;;;;;5098412;28;20177;-59
2023/04/24 01:25:36;;;;;;;13.88;12.30;;;10.20;99.90;;;;;;5116660;28;20173;-59
2023/04/24 01:28:01;;;;;;;13.60;12.20;;;10.20;99.90;;;;;;5116664;28;20169;-58
2023/04/24 01:30:27;;;;;;;13.68;12.25;;;10.20;99.90;;;;;;5116814;28;20632;-58
2023/04/24 01:32:53;;;;;;;15.35;12.55;;;10.20;99.90;;;;;;5116542;28;20260;-58
2023/04/24 01:35:19;;;;;;;13.30;11.93;;;10.20;99.90;;;;;;5116586;28;20181;-58
2023/04/24 01:37:45;;;;;;;15.13;13.27;;;10.30;99.90;;;;;;5116553;28;20208;-58
2023/04/24 01:40:11;;;;;;;16.13;12.90;;;10.30;99.90;;;;;;5116349;28;20173;-59
2023/04/24 01:42:38;;;;;;;14.70;13.20;;;10.30;99.90;;;;;;5116614;28;20217;-58
2023/04/24 01:45:05;;;;;;;14.98;12.65;;;10.40;99.90;;;;;;5116464;28;20547;-56
2023/04/24 01:47:31;;;;;;;16.13;12.60;;;10.40;99.90;;;;;;5116177;28;20184;-58
2023/04/24 01:49:57;;;;;;;15.25;12.07;;;10.50;99.90;;;;;;5115985;28;20221;-58
2023/04/24 01:52:23;;;;;;;12.25;11.02;;;10.40;99.90;;;;;;5116385;28;20199;-58
2023/04/24 01:54:49;;;;;;;12.77;11.57;;;10.40;99.90;;;;;;5116096;28;20210;-58
2023/04/24 01:57:16;;;;;;;13.27;11.93;;;10.40;99.90;;;;;;5116283;28;20173;-58
2023/04/24 01:59:41;;;;;;;14.75;13.25;;;10.20;99.90;;;;;;5116239;28;20169;-58
2023/04/24 02:02:07;;;;;;;13.88;12.57;;;10.20;99.90;;;;;;5116173;28;20215;-58
2023/04/24 02:04:33;;;;;;;14.38;13.05;;;10.20;99.90;;;;;;5116017;28;20182;-57
2023/04/24 02:06:59;;;;;;;13.82;12.43;;;10.10;99.90;;;;;;5115952;28;20180;-59
2023/04/24 02:09:25;;;;;;;13.98;12.77;;;10.10;99.90;;;;;;5115819;28;20696;-58
2023/04/24 02:11:50;;;;;;;14.05;12.88;;;10.10;99.90;;;;;;5116071;28;20203;-58
2023/04/24 02:14:16;;;;;;;14.63;13.13;;;10.00;99.90;;;;;;5115800;28;20551;-58
2023/04/24 02:16:42;;;;;;;13.55;12.35;;;10.10;99.90;;;;;;5115908;28;20187;-58
2023/04/24 02:19:08;;;;;;;14.32;12.85;;;10.20;99.90;;;;;;5115691;28;20181;-58
2023/04/24 02:21:33;;;;;;;15.32;13.88;;;10.10;99.90;;;;;;5115660;28;20238;-58
2023/04/24 02:23:59;;;;;;;14.85;13.43;;;10.10;99.90;;;;;;5115494;28;20181;-57
2023/04/24 02:26:25;;;;;;;14.30;13.00;;;10.00;99.90;;;;;;5115780;28;20197;-57
2023/04/24 02:28:51;;;;;;;13.57;12.27;;;9.90;99.90;;;;;;5115712;28;20532;-58
2023/04/24 02:31:16;;;;;;;13.57;12.38;;;9.90;99.90;;;;;;5115649;28;20180;-58
2023/04/24 02:33:42;;;;;;;13.80;12.50;;;10.00;99.90;;;;;;5115613;28;20169;-57
2023/04/24 02:36:08;;;;;;;14.15;12.75;;;9.90;99.90;;;;;;5115396;28;20223;-58
2023/04/24 02:38:33;;;;;;;14.57;13.07;;;10.00;99.90;;;;;;5115329;28;20177;-57
2023/04/24 02:41:00;;;;;;;14.05;12.70;;;9.90;99.90;;;;;;5115422;28;20213;-58
2023/04/24 02:43:26;;;;;;;14.23;12.88;;;9.90;99.90;;;;;;5115447;28;20212;-58
2023/04/24 02:45:51;;;;;;;13.73;12.50;;;9.90;99.90;;;;;;5115354;28;20208;-58
2023/04/24 02:48:17;;;;;;;14.27;12.88;;;9.90;99.90;;;;;;5115257;28;20312;-58
2023/04/24 02:50:43;;;;;;;12.82;11.63;;;9.90;99.90;;;;;;5115447;28;20181;-58
2023/04/24 02:53:08;;;;;;;15.13;13.65;;;9.90;99.90;;;;;;5115013;28;20169;-58
2023/04/24 02:55:34;;;;;;;13.75;12.38;;;9.80;99.90;;;;;;5115537;28;20178;-58
2023/04/24 02:58:00;;;;;;;13.95;12.63;;;9.80;99.90;;;;;;5096860;28;20707;-58
2023/04/24 03:00:25;;;;;;;14.50;13.00;;;9.90;99.90;;;;;;5114889;28;20215;-58
2023/04/24 03:02:51;;;;;;;13.68;12.48;;;9.90;99.90;;;;;;5114295;28;20189;-58
2023/04/24 03:05:17;;;;;;;15.23;13.65;;;9.80;99.90;;;;;;5114883;28;20631;-58
2023/04/24 03:07:42;;;;;;;14.40;13.00;;;9.90;99.90;;;;;;5114642;28;20679;-58
2023/04/24 03:10:08;;;;;;;13.82;12.52;;;9.90;99.90;;;;;;5096603;28;20268;-57
2023/04/24 03:12:34;;;;;;;14.85;13.40;;;9.90;99.90;;;;;;5114792;28;20182;-58
2023/04/24 03:15:00;;;;;;;13.88;12.65;;;9.80;99.90;;;;;;5114801;28;20173;-58
2023/04/24 03:17:25;;;;;;;14.75;13.32;;;9.80;99.90;;;;;;5114659;28;20185;-58
2023/04/24 03:19:51;;;;;;;15.07;13.63;;;9.80;99.90;;;;;;5096397;28;20181;-58
2023/04/24 03:22:17;;;;;;;16.25;14.50;;;9.90;99.90;;;;;;5114413;28;20686;-58
2023/04/24 03:24:42;;;;;;;17.55;15.02;;;9.90;99.90;;;;;;5114436;28;20535;-58
2023/04/24 03:27:08;;;;;;;16.77;15.27;;;10.00;99.90;;;;;;5114495;28;20230;-57
2023/04/24 03:29:34;;;;;;;17.92;16.13;;;10.00;99.90;;;;;;5114199;28;20701;-57
2023/04/24 03:32:00;;;;;;;12.80;10.20;;;10.00;99.90;;;;;;5114517;28;20183;-57
2023/04/24 03:34:25;;;;;;;12.23;10.93;;;10.00;99.90;;;;;;5114386;28;20303;-58
2023/04/24 03:36:52;;;;;;;14.90;11.15;;;10.10;99.90;;;;;;5114189;28;20256;-58
2023/04/24 03:39:18;;;;;;;11.23;8.15;;;10.10;99.90;;;;;;5114307;28;20181;-58
2023/04/24 03:41:43;;;;;;;7.22;5.80;;;10.00;99.90;;;;;;5114169;28;20216;-57
2023/04/24 03:44:09;;;;;;;8.88;5.38;;;10.10;99.90;;;;;;5114243;28;20260;-57
2023/04/24 03:46:35;;;;;;;5.90;4.97;;;10.10;99.90;;;;;;5114154;28;20291;-58
2023/04/24 03:49:00;;;;;;;5.82;4.32;;;10.00;99.90;;;;;;5114240;28;20260;-58
2023/04/24 03:51:27;;;;;;;9.32;4.82;;;9.90;99.90;;;;;;5113961;28;20177;-58
2023/04/24 03:53:53;;;;;;;5.13;4.50;;;9.90;99.90;;;;;;5096315;28;20173;-57
2023/04/24 03:56:19;;;;;;;6.55;4.95;;;9.90;99.90;;;;;;5113896;28;20187;-58
2023/04/24 03:58:45;;;;;;;7.72;5.80;;;9.90;99.90;;;;;;5113973;28;20226;-57
2023/04/24 04:01:11;;;;;;;5.97;5.38;;;9.90;99.90;;;;;;5113797;28;20220;-58
2023/04/24 04:03:37;;;;;;;8.13;5.50;;;9.90;99.90;;;;;;5113819;28;20216;-57
2023/04/24 04:06:03;;;;;;;7.45;5.63;;;9.90;99.90;;;;;;5113799;28;20204;-57
2023/04/24 04:08:29;;;;;;;6.68;5.70;;;9.80;99.90;;;;;;5113866;28;20589;-57
2023/04/24 04:10:54;;;;;;;6.53;5.55;;;9.80;99.90;;;;;;5113884;28;20191;-57
2023/04/24 04:13:20;;;;;;;9.13;5.50;;;9.80;99.90;;;;;;5113813;28;20532;-57
2023/04/24 04:15:46;;;;;;;7.50;6.00;;;9.80;99.90;;;;;;5113610;28;20203;-58
2023/04/24 04:18:11;;;;;;;7.90;6.80;;;9.80;99.90;;;;;;5113729;28;20161;-57
2023/04/24 04:20:37;;;;;;;10.07;8.10;;;9.80;99.90;;;;;;5113356;28;20184;-58
2023/04/24 04:23:03;;;;;;;12.02;8.65;;;9.80;99.90;;;;;;5113753;28;20177;-57
2023/04/24 04:25:28;;;;;;;12.07;10.73;;;9.80;99.90;;;;;;5113737;28;20172;-57
2023/04/24 04:27:54;;;;;;;12.57;10.68;;;9.70;99.90;;;;;;5113444;28;20169;-57
2023/04/24 04:30:20;;;;;;;11.95;10.73;;;9.70;99.90;;;;;;5113585;28;20177;-58
2023/04/24 04:32:46;;;;;;;13.05;10.95;;;9.70;99.90;;;;;;5113525;28;20174;-57
2023/04/24 04:35:12;;;;;;;12.38;10.90;;;9.60;99.90;;;;;;5113382;28;20216;-58
2023/04/24 04:37:38;;;;;;;14.30;11.00;;;9.60;99.90;;;;;;5113848;28;20166;-57
2023/04/24 04:40:06;;;;;;;13.70;11.02;;;9.60;99.90;;;;;;5113361;28;20539;-57
2023/04/24 04:42:33;;;;;;;11.98;10.77;;;9.70;99.90;;;;;;5113613;28;20282;-57
2023/04/24 04:45:00;;;;;;;14.50;11.68;;;9.60;99.90;;;;;;5113358;28;20208;-57
2023/04/24 04:47:28;;;;;;;15.80;11.55;;;9.60;99.90;;;;;;5113424;28;20180;-58
2023/04/24 04:49:54;;;;;;;13.85;11.45;;;9.60;99.90;;;;;;5113134;28;20225;-58
2023/04/24 04:52:20;;;;;;;16.92;11.75;;;9.60;99.90;;;;;;5113259;28;20177;-58
2023/04/24 04:54:46;;;;;;;16.13;11.82;;;9.60;99.90;;;;;;5113389;28;20230;-57
2023/04/24 04:57:12;;;;;;;16.10;12.77;;;9.60;99.90;;;;;;5095157;28;20177;-58
2023/04/24 04:59:38;;;;;;;17.20;12.68;;;9.50;99.90;;;;;;5113329;28;20273;-58
2023/04/24 05:02:03;;;;;;;14.55;12.13;;;9.50;99.90;;;;;;5113140;28;20209;-59
2023/04/24 05:04:30;;;;;;;14.05;11.07;;;9.40;99.90;;;;;;5113194;28;20209;-59
2023/04/24 05:06:56;;;;;;;15.65;11.15;;;9.40;99.90;;;;;;5113387;28;20221;-59
2023/04/24 05:09:22;;;;;;;15.82;10.93;;;9.50;99.90;;;;;;5113281;28;20565;-58
2023/04/24 05:11:47;;;;;;;16.80;10.80;;;9.50;99.90;;;;;;5113253;28;20261;-59
2023/04/24 05:14:13;;;;;;;14.77;10.55;;;9.50;99.90;;;;;;5113311;28;20180;-58
2023/04/24 05:16:40;;;;;;;13.20;10.60;;;9.40;99.90;;;;;;5112444;28;20177;-58
2023/04/24 05:19:05;;;;;;;14.38;11.02;;;9.40;99.90;;;;;;5112972;28;20205;-58
2023/04/24 05:21:31;;;;;;;15.07;10.75;;;9.50;99.90;;;;;;5113210;28;20748;-59
2023/04/24 05:23:57;;;;;;;13.45;11.13;;;9.50;99.90;;;;;;5113052;28;20182;-58
2023/04/24 05:26:22;;;;;;;16.27;11.40;;;9.50;99.90;;;;;;5115915;28;20173;-59
2023/04/24 05:28:48;;;;;;;16.50;11.77;;;9.50;99.90;;;;;;5116353;28;20186;-59
2023/04/24 05:31:14;;;;;;;15.80;11.38;;;9.50;99.90;;;;;;5116172;28;20206;-58
2023/04/24 05:33:40;;;;;;;17.05;12.60;;;9.50;99.90;;;;;;5116457;28;20177;-58
2023/04/24 05:36:06;;;;;;;14.18;11.88;;;9.60;99.90;;;;;;5116855;28;20616;-58
2023/04/24 05:38:32;;;;;;;15.90;12.77;;;9.60;99.90;;;;;;5116813;28;20165;-58
2023/04/24 05:40:58;;;;;;;15.82;12.38;;;9.60;99.90;;;;;;5116559;28;20227;-58
2023/04/24 05:43:23;;;;;;;15.43;12.73;;;9.60;99.90;;;;;;5116709;28;20183;-59
2023/04/24 05:45:49;;;;;;;17.42;12.93;;;9.50;99.90;;;;;;5116313;28;20177;-59
2023/04/24 05:48:15;;;;;;;15.73;12.80;;;9.50;99.90;;;;;;5115936;28;20229;-59
2023/04/24 05:50:41;;;;;;;21.13;16.25;;;9.70;99.90;;;;;;5116513;28;20215;-59
2023/04/24 05:53:07;;;;;;;30.60;23.77;;;9.60;99.90;;;;;;5116345;28;20174;-58
2023/04/24 05:55:34;;;;;;;39.97;27.15;;;9.50;99.90;;;;;;5116305;28;20620;-59
2023/04/24 05:57:59;;;;;;;37.22;27.88;;;9.60;99.90;;;;;;5116164;28;20173;-58
2023/04/24 06:00:25;;;;;;;37.88;28.38;;;9.60;99.90;;;;;;5116108;28;20184;-58
2023/04/24 06:02:52;;;;;;;35.38;28.08;;;9.70;99.90;;;;;;5116052;28;20250;-59
2023/04/24 06:05:18;;;;;;;37.17;26.98;;;9.70;99.90;;;;;;5116278;28;20173;-59
2023/04/24 06:07:45;;;;;;;34.03;25.55;;;9.70;99.90;;;;;;5115890;28;20169;-58
2023/04/24 06:10:10;;;;;;;33.47;25.23;;;9.60;99.90;;;;;;5116030;28;20521;-58
2023/04/24 06:12:36;;;;;;;29.65;23.05;;;9.60;99.90;;;;;;5115966;28;20184;-58
2023/04/24 06:15:02;;;;;;;43.60;25.25;;;9.60;99.90;;;;;;5115964;28;20260;-58
2023/04/24 06:17:28;;;;;;;33.53;23.70;;;9.60;99.90;;;;;;5115509;28;20181;-59
2023/04/24 06:19:54;;;;;;;33.65;24.52;;;9.70;99.90;;;;;;5115740;28;20260;-59
2023/04/24 06:22:19;;;;;;;35.53;26.17;;;9.70;99.90;;;;;;5115870;28;20209;-59
2023/04/24 06:24:45;;;;;;;39.20;26.35;;;9.70;99.90;;;;;;5115786;28;20623;-59
2023/04/24 06:27:11;;;;;;;31.48;22.50;;;9.70;99.90;;;;;;5115790;28;20609;-59
2023/04/24 06:29:36;;;;;;;28.15;20.75;;;9.80;99.90;;;;;;5115534;28;20172;-58
2023/04/24 06:32:02;;;;;;;28.83;18.88;;;9.70;99.90;;;;;;5115301;28;20177;-58
2023/04/24 06:34:28;;;;;;;25.63;18.02;;;9.70;99.90;;;;;;5115474;28;20297;-58
2023/04/24 06:36:54;;;;;;;29.63;19.73;;;9.70;99.90;;;;;;5114555;28;20245;-58
2023/04/24 06:39:20;;;;;;;31.23;20.33;;;9.70;99.90;;;;;;5115488;28;20179;-58
2023/04/24 06:41:46;;;;;;;27.92;20.05;;;9.80;99.90;;;;;;5115280;28;20208;-62
2023/04/24 06:44:11;;;;;;;24.95;16.40;;;9.70;99.90;;;;;;5115366;28;20210;-58
2023/04/24 06:46:37;;;;;;;17.67;11.70;;;9.80;99.90;;;;;;5115206;28;20647;-58
2023/04/24 06:49:03;;;;;;;17.00;9.85;;;9.70;99.90;;;;;;5115085;28;20220;-58
2023/04/24 06:51:28;;;;;;;16.27;8.98;;;9.70;99.90;;;;;;5115384;28;20525;-58
2023/04/24 06:53:55;;;;;;;15.68;7.53;;;9.70;99.90;;;;;;5115205;28;20264;-58
2023/04/24 06:56:22;;;;;;;14.50;7.53;;;9.70;99.90;;;;;;5115043;28;20173;-58
2023/04/24 06:58:48;;;;;;;11.98;6.90;;;9.70;99.90;;;;;;5115087;28;20257;-58
2023/04/24 07:01:14;;;;;;;12.07;6.40;;;9.80;99.90;;;;;;5114739;28;20299;-58
2023/04/24 07:03:39;;;;;;;11.30;6.97;;;9.80;99.90;;;;;;5114730;28;20233;-58
2023/04/24 07:06:06;;;;;;;10.88;6.85;;;9.70;99.90;;;;;;5114461;28;20181;-58
2023/04/24 07:08:32;;;;;;;12.50;6.80;;;9.70;99.90;;;;;;5114496;28;20172;-58
2023/04/24 07:10:59;;;;;;;13.10;6.53;;;9.80;99.90;;;;;;5114755;28;20197;-58
2023/04/24 07:13:25;;;;;;;10.93;6.18;;;9.80;99.90;;;;;;5096677;28;20257;-58
2023/04/24 07:15:52;;;;;;;12.40;5.90;;;9.80;99.90;;;;;;5114561;28;20207;-58
2023/04/24 07:18:18;;;;;;;12.98;6.15;;;9.70;99.90;;;;;;5114199;28;20535;-58
2023/04/24 07:20:44;;;;;;;10.90;5.45;;;9.70;99.90;;;;;;5114493;28;20170;-58
2023/04/24 07:23:10;;;;;;;9.93;5.63;;;9.80;99.90;;;;;;5113946;28;20177;-58
2023/04/24 07:25:35;;;;;;;11.70;6.05;;;9.90;99.90;;;;;;5114555;28;20180;-58
2023/04/24 07:28:01;;;;;;;11.95;5.63;;;9.90;99.90;;;;;;5114290;28;20209;-58
2023/04/24 07:30:28;;;;;;;11.35;5.35;;;10.10;99.90;;;;;;5114207;28;20177;-58
2023/04/24 07:32:55;;;;;;;12.80;5.63;;;10.10;99.90;;;;;;5114465;28;20176;-58
2023/04/24 07:35:21;;;;;;;15.70;5.57;;;10.10;99.90;;;;;;5114500;28;20164;-58
2023/04/24 07:37:47;;;;;;;12.75;5.70;;;10.00;99.90;;;;;;5113143;28;20540;-58
2023/04/24 07:40:13;;;;;;;13.80;5.97;;;10.00;99.90;;;;;;5112547;28;20711;-58
2023/04/24 07:42:39;;;;;;;10.88;5.43;;;10.10;99.90;;;;;;5114137;28;20212;-58
2023/04/24 07:45:05;;;;;;;13.13;5.78;;;10.20;99.90;;;;;;5114129;28;20255;-59
2023/04/24 07:47:32;;;;;;;14.15;7.85;;;10.10;99.90;;;;;;5114167;28;20238;-58
2023/04/24 07:49:58;;;;;;;19.35;11.02;;;10.10;99.90;;;;;;5114147;28;20213;-59
2023/04/24 07:52:24;;;;;;;19.95;10.80;;;10.10;99.90;;;;;;5113887;28;20569;-58
2023/04/24 07:54:50;;;;;;;19.35;10.55;;;10.10;99.90;;;;;;5114083;28;20303;-59
2023/04/24 07:57:16;;;;;;;22.20;10.32;;;10.10;99.90;;;;;;5113962;28;20525;-58
2023/04/24 07:59:42;;;;;;;20.48;9.82;;;10.10;99.90;;;;;;5113810;28;20636;-59
2023/04/24 08:02:07;;;;;;;19.85;8.98;;;10.20;99.90;;;;;;5114033;28;20211;-58
2023/04/24 08:04:33;;;;;;;20.48;8.20;;;10.30;99.90;;;;;;5114265;28;20177;-59
2023/04/24 08:06:59;;;;;;;15.55;6.90;;;10.40;99.90;;;;;;5113963;28;20178;-58
2023/04/24 08:09:24;;;;;;;12.07;6.25;;;10.70;99.90;;;;;;5113858;28;20227;-59
2023/04/24 08:11:50;;;;;;;11.82;5.82;;;10.70;99.90;;;;;;5113789;28;20181;-58
2023/04/24 08:14:16;;;;;;;11.27;5.65;;;10.80;99.90;;;;;;5113630;28;20177;-62
2023/04/24 08:16:42;;;;;;;15.00;5.72;;;10.90;99.90;;;;;;5113693;28;20252;-58
2023/04/24 08:19:07;;;;;;;17.35;6.22;;;11.00;99.90;;;;;;5113882;28;20574;-59
2023/04/24 08:21:33;;;;;;;12.07;6.15;;;11.00;99.90;;;;;;5113816;28;20212;-59
2023/04/24 08:23:59;;;;;;;13.68;5.88;;;11.00;99.90;;;;;;5113506;28;20631;-59
2023/04/24 08:26:25;;;;;;;12.77;5.22;;;10.90;99.90;;;;;;5113645;28;20184;-58
2023/04/24 08:28:50;;;;;;;12.73;5.38;;;10.70;99.90;;;;;;5113482;28;20180;-59
2023/04/24 08:31:16;;;;;;;14.27;5.75;;;10.50;99.90;;;;;;5113706;28;20574;-59
2023/04/24 08:33:44;;;;;;;15.25;6.55;;;10.50;99.90;;;;;;5113661;28;20181;-59
2023/04/24 08:36:10;;;;;;;13.70;6.88;;;10.50;99.90;;;;;;5113668;28;20165;-58
2023/04/24 08:38:36;;;;;;;12.60;6.45;;;10.50;99.90;;;;;;5113498;28;20766;-58
2023/04/24 08:41:02;;;;;;;13.55;7.10;;;10.70;99.90;;;;;;5113384;28;20678;-58
2023/04/24 08:43:28;;;;;;;12.48;6.43;;;10.70;99.90;;;;;;5113360;28;20197;-59
2023/04/24 08:45:56;;;;;;;15.23;6.70;;;10.80;99.90;;;;;;5113487;28;20180;-58
2023/04/24 08:48:22;;;;;;;10.20;6.25;;;10.80;99.90;;;;;;5113070;28;20216;-59
2023/04/24 08:50:50;;;;;;;12.57;6.93;;;10.70;99.90;;;;;;5113357;28;20170;-59
2023/04/24 08:53:17;;;;;;;16.60;8.45;;;10.70;99.90;;;;;;5113263;28;20635;-59
2023/04/24 08:55:46;;;;;;;21.17;14.15;;;10.70;99.90;;;;;;5113262;28;20602;-59
2023/04/24 08:58:13;;;;;;;27.70;16.58;;;10.90;99.90;;;;;;5113180;28;20165;-58
2023/04/24 09:00:39;;;;;;;21.48;13.00;;;11.00;99.90;;;;;;5115094;28;20704;-59
2023/04/24 09:03:06;;;;;;;16.77;8.63;;;11.40;99.90;;;;;;5117379;28;20208;-59
2023/04/24 09:05:33;;;;;;;16.30;8.10;;;11.70;99.90;;;;;;5117378;28;20570;-58
2023/04/24 09:08:01;;;;;;;11.90;6.95;;;12.00;99.90;;;;;;5117188;27;20180;-59
2023/04/24 09:10:30;;;;;;;9.85;5.65;;;12.10;99.90;;;;;;5117093;28;20192;-59
2023/04/24 09:12:57;;;;;;;12.50;5.40;;;12.40;99.90;;;;;;5116958;28;20189;-59
2023/04/24 09:15:24;;;;;;;9.95;4.63;;;12.40;99.90;;;;;;5117140;28;20185;-59
2023/04/24 09:17:50;;;;;;;8.15;4.80;;;12.30;99.90;;;;;;5117179;28;20204;-59
2023/04/24 09:20:16;;;;;;;10.50;5.05;;;12.20;99.90;;;;;;5116506;28;20169;-59
2023/04/24 09:22:44;;;;;;;12.10;5.43;;;11.90;99.90;;;;;;5116374;28;20217;-58
2023/04/24 09:25:12;;;;;;;10.85;5.82;;;11.80;99.90;;;;;;5116841;28;20188;-59
2023/04/24 09:27:43;;;;;;;8.35;4.80;;;11.90;99.90;;;;;;5117181;28;20306;-58
2023/04/24 09:30:10;;;;;;;7.63;4.60;;;11.90;99.90;;;;;;5116798;28;20200;-59
2023/04/24 09:32:35;;;;;;;9.00;4.25;;;12.00;99.90;;;;;;5116770;28;20268;-59
2023/04/24 09:35:12;;;;;;;6.57;3.95;;;11.70;99.90;;;;;;5116699;28;20385;-59
2023/04/24 09:37:42;;;;;;;11.27;4.68;;;11.40;99.90;;;;;;5116535;28;20173;-59
2023/04/24 09:40:11;;;;;;;7.40;3.60;;;11.30;99.90;;;;;;5116709;28;20257;-58
2023/04/24 09:42:37;;;;;;;7.90;3.88;;;11.30;99.90;;;;;;5116493;28;20212;-58
2023/04/24 09:45:03;;;;;;;10.85;6.10;;;11.30;99.90;;;;;;5116415;28;20177;-59
2023/04/24 09:47:36;;;;;;;6.80;3.90;;;11.60;99.90;;;;;;5116456;28;20169;-59
2023/04/24 09:50:12;;;;;;;11.98;4.57;;;11.80;99.90;;;;;;5116294;28;20221;-59
2023/04/24 09:52:41;;;;;;;8.77;3.85;;;11.60;99.90;;;;;;5116475;28;20520;-59
2023/04/24 09:55:18;;;;;;;7.72;3.80;;;11.40;99.90;;;;;;5116517;28;20642;-59
2023/04/24 09:57:49;;;;;;;9.75;3.80;;;11.20;99.90;;;;;;5106328;28;20172;-59
2023/04/24 10:00:25;;;;;;;8.07;4.05;;;11.20;99.90;;;;;;5115892;28;20635;-58
2023/04/24 10:02:54;;;;;;;9.02;4.18;;;11.40;99.90;;;;;;5116082;28;20612;-58
2023/04/24 10:05:23;;;;;;;8.40;3.45;;;11.60;99.90;;;;;;5116192;28;20169;-59
2023/04/24 10:07:49;;;;;;;9.60;3.97;;;11.60;99.90;;;;;;5116123;28;20528;-58
2023/04/24 10:10:15;;;;;;;7.95;4.00;;;11.80;99.90;;;;;;5116104;28;20173;-59
2023/04/24 10:12:41;;;;;;;6.97;3.50;;;11.80;99.90;;;;;;5115768;28;20543;-59
2023/04/24 10:15:09;;;;;;;5.50;3.67;;;11.70;99.90;;;;;;5115781;28;20178;-58
2023/04/24 10:17:35;;;;;;;6.60;3.83;;;11.80;99.90;;;;;;5115984;28;20192;-59
2023/04/24 10:20:02;;;;;;;11.48;4.03;;;11.80;99.90;;;;;;5115885;28;20185;-59
2023/04/24 10:22:30;;;;;;;8.40;3.42;;;11.80;99.90;;;;;;5115836;28;20201;-59
2023/04/24 10:24:56;;;;;;;10.20;4.05;;;11.70;99.90;;;;;;5115774;28;20173;-59
2023/04/24 10:27:24;;;;;;;6.47;3.65;;;11.60;99.90;;;;;;5115825;28;20195;-59
2023/04/24 10:29:52;;;;;;;7.43;3.80;;;11.70;99.90;;;;;;5115611;28;20197;-59
2023/04/24 10:32:18;;;;;;;8.95;3.67;;;12.00;99.90;;;;;;5115589;28;20173;-59
2023/04/24 10:34:44;;;;;;;7.15;4.10;;;12.10;99.90;;;;;;5115630;28;20181;-58
2023/04/24 10:37:10;;;;;;;5.90;3.60;;;12.10;99.90;;;;;;5115540;28;20179;-59
2023/04/24 10:39:37;;;;;;;8.82;3.90;;;12.00;99.90;;;;;;5115441;28;20169;-59
2023/04/24 10:42:15;;;;;;;6.32;3.95;;;11.80;99.90;;;;;;5115309;28;20258;-59
2023/04/24 10:44:41;;;;;;;9.25;3.92;;;11.80;99.90;;;;;;5115484;28;20159;-59
2023/04/24 10:47:13;;;;;;;5.78;3.50;;;11.80;99.90;;;;;;5115176;28;20169;-59
2023/04/24 10:49:40;;;;;;;9.55;4.05;;;11.80;99.90;;;;;;5115455;28;20228;-59
2023/04/24 10:52:05;;;;;;;9.63;4.50;;;11.90;99.90;;;;;;5115237;28;20177;-59
2023/04/24 10:54:42;;;;;;;9.23;4.63;;;12.00;99.90;;;;;;5115039;28;20191;-59
2023/04/24 10:57:22;;;;;;;7.65;4.50;;;12.10;99.90;;;;;;5115179;28;20172;-59
2023/04/24 10:59:53;;;;;;;7.07;4.05;;;12.20;99.90;;;;;;5115019;28;20181;-59
2023/04/24 11:02:35;;;;;;;7.82;4.22;;;12.50;99.90;;;;;;5114774;28;20667;-59
2023/04/24 11:05:03;;;;;;;8.95;3.90;;;12.50;99.90;;;;;;5114862;28;20201;-58
2023/04/24 11:07:29;;;;;;;7.90;3.95;;;12.70;99.90;;;;;;5114564;28;20169;-59
2023/04/24 11:09:58;;;;;;;7.35;3.88;;;12.80;99.90;;;;;;5114921;28;20268;-60
2023/04/24 11:12:26;;;;;;;9.57;4.55;;;13.00;99.90;;;;;;5114830;28;20165;-59
2023/04/24 11:14:56;;;;;;;11.20;5.00;;;13.10;99.90;;;;;;5114819;28;20222;-59
2023/04/24 11:17:37;;;;;;;10.05;6.55;;;13.30;99.90;;;;;;5114405;28;20177;-59
2023/04/24 11:20:12;;;;;;;10.10;6.00;;;13.70;99.90;;;;;;5114367;28;20594;-58
2023/04/24 11:22:42;;;;;;;10.73;5.57;;;13.80;99.90;;;;;;5113849;28;20287;-59
2023/04/24 11:25:09;;;;;;;7.88;4.68;;;13.80;99.90;;;;;;5114495;28;20612;-59
2023/04/24 11:27:48;;;;;;;7.53;3.88;;;13.70;99.90;;;;;;5114350;28;20226;-59
2023/04/24 11:30:18;;;;;;;6.70;3.30;;;13.60;99.90;;;;;;5114431;28;20169;-59
2023/04/24 11:32:49;;;;;;;8.80;3.55;;;13.50;99.90;;;;;;5114405;28;20201;-59
2023/04/24 11:35:19;;;;;;;7.90;4.25;;;13.50;99.90;;;;;;5114498;28;20185;-59
2023/04/24 11:37:47;;;;;;;7.78;4.40;;;13.20;99.90;;;;;;5114236;28;20166;-59
2023/04/24 11:40:17;;;;;;;7.03;3.90;;;13.00;99.90;;;;;;5114407;28;20207;-59
2023/04/24 11:42:44;;;;;;;8.88;5.40;;;13.00;99.90;;;;;;5114172;28;20224;-58
2023/04/24 11:45:16;;;;;;;9.23;5.10;;;13.50;99.90;;;;;;5114113;28;20257;-59
2023/04/24 11:47:43;;;;;;;7.47;4.43;;;14.00;99.90;;;;;;5114261;28;20169;-58
2023/04/24 11:50:12;;;;;;;8.38;5.45;;;14.30;99.90;;;;;;5112755;28;20679;-59
2023/04/24 11:52:39;;;;;;;10.48;7.10;;;14.60;99.90;;;;;;5114130;28;20181;-59
2023/04/24 11:55:09;;;;;;;10.25;5.35;;;14.90;99.90;;;;;;5114064;28;20171;-59
2023/04/24 11:57:36;;;;;;;6.35;4.40;;;15.10;99.90;;;;;;5113849;28;20204;-59
2023/04/24 12:00:05;;;;;;;7.05;4.05;;;15.20;99.90;;;;;;5114094;28;20172;-59
2023/04/24 12:02:30;;;;;;;7.60;5.70;;;15.30;99.90;;;;;;5114026;28;20632;-59
2023/04/24 12:04:56;;;;;;;8.70;6.25;;;15.20;99.90;;;;;;5113926;28;20197;-59
2023/04/24 12:07:24;;;;;;;8.05;5.85;;;14.80;99.90;;;;;;5113222;28;20185;-59
2023/04/24 12:10:02;;;;;;;4.07;2.75;;;14.50;99.90;;;;;;5113706;28;20181;-58
2023/04/24 12:12:28;;;;;;;5.82;2.88;;;14.10;99.90;;;;;;5113825;28;20169;-58
2023/04/24 12:14:58;;;;;;;7.35;3.08;;;13.90;99.90;;;;;;5113908;28;20197;-58
2023/04/24 12:17:25;;;;;;;7.20;4.47;;;13.50;99.90;;;;;;5113722;28;20177;-58
2023/04/24 12:19:51;;;;;;;7.60;4.40;;;13.50;99.90;;;;;;5113912;27;20234;-58
2023/04/24 12:22:17;;;;;;;9.13;3.65;;;13.30;99.90;;;;;;5113591;28;20691;-58
2023/04/24 12:25:10;;;;;;;6.32;3.88;;;13.20;99.90;;;;;;5111789;28;20226;-58
2023/04/24 12:27:36;;;;;;;7.38;5.05;;;13.00;99.90;;;;;;5113753;28;20253;-58
2023/04/24 12:30:04;;;;;;;6.82;4.72;;;12.90;99.90;;;;;;5112496;28;20200;-58
2023/04/24 12:32:30;;;;;;;7.90;4.20;;;12.90;99.90;;;;;;5113422;28;20177;-58
2023/04/24 12:34:56;;;;;;;6.38;3.10;;;12.90;99.90;;;;;;5113973;28;20497;-58